Time;durP1;ratioP1;P1;durP2;ratioP2;P2;SDS_P1;SDS_P2;PMS_P1;PMS_P2;Temp;Humidity;BMP_temperature;BMP_pressure;BME280_temperature;BME280_humidity;BME280_pressure;Samples;Min_cycle;Max_cycle;Signal;HPM_P1;HPM_P2
2022/01/15 00:01:02;;;;;;;21.85;12.20;;;;;;;;;;5034310;28;20080;-71
2022/01/15 00:03:35;;;;;;;21.77;11.55;;;;;;;;;;5033308;28;20088;-71
2022/01/15 00:06:08;;;;;;;20.17;11.38;;;;;;;;;;5033178;28;20140;-71
2022/01/15 00:08:37;;;;;;;21.60;11.57;;;;;;;;;;5034051;28;20051;-72
2022/01/15 00:11:05;;;;;;;21.40;10.77;;;;;;;;;;5034058;28;20040;-72
2022/01/15 00:13:33;;;;;;;21.95;11.90;;;;;;;;;;5034157;28;20041;-71
2022/01/15 00:16:10;;;;;;;20.10;11.80;;;;;;;;;;5034218;28;20037;-71
2022/01/15 00:19:00;;;;;;;21.15;11.63;;;;;;;;;;5032948;28;20046;-71
2022/01/15 00:21:30;;;;;;;21.92;11.25;;;;;;;;;;5034075;28;20120;-71
2022/01/15 00:24:24;;;;;;;19.73;10.75;;;;;;;;;;5034176;28;20396;-71
2022/01/15 00:26:57;;;;;;;19.35;11.65;;;;;;;;;;5033885;28;20046;-71
2022/01/15 00:29:24;;;;;;;24.42;12.48;;;;;;;;;;5033997;28;20042;-71
2022/01/15 00:32:17;;;;;;;24.00;12.38;;;;;;;;;;5034210;28;20045;-71
2022/01/15 00:34:50;;;;;;;24.50;12.50;;;;;;;;;;5034376;28;20083;-71
2022/01/15 00:37:32;;;;;;;23.75;12.75;;;;;;;;;;5032555;28;20419;-71
2022/01/15 00:40:32;;;;;;;21.80;12.07;;;;;;;;;;5033752;28;20447;-70
2022/01/15 00:42:59;;;;;;;20.83;12.65;;;;;;;;;;5034039;28;20068;-71
2022/01/15 00:45:58;;;;;;;22.80;11.73;;;;;;;;;;5033923;28;20037;-71
2022/01/15 00:48:26;;;;;;;23.77;12.88;;;;;;;;;;5033841;28;20060;-71
2022/01/15 00:51:18;;;;;;;27.75;13.05;;;;;;;;;;5032061;28;20222;-72
2022/01/15 00:53:50;;;;;;;23.10;12.85;;;;;;;;;;5032353;28;20479;-72
2022/01/15 00:56:17;;;;;;;25.15;13.13;;;;;;;;;;5033288;28;20080;-71
2022/01/15 00:58:52;;;;;;;23.27;12.25;;;;;;;;;;5033779;28;20041;-71
2022/01/15 01:01:20;;;;;;;21.73;12.23;;;;;;;;;;5032105;28;20467;-71
2022/01/15 01:04:13;;;;;;;23.05;12.57;;;;;;;;;;5032777;28;20374;-71
2022/01/15 01:06:43;;;;;;;24.92;13.40;;;;;;;;;;5033988;28;20041;-71
2022/01/15 01:09:13;;;;;;;25.40;13.20;;;;;;;;;;5033547;28;20037;-71
2022/01/15 01:11:51;;;;;;;22.45;13.38;;;;;;;;;;5033691;28;20429;-71
2022/01/15 01:20:11;;;;;;;27.67;14.13;;;;;;;;;;5031789;28;20136;-71
2022/01/15 01:22:57;;;;;;;30.13;15.18;;;;;;;;;;5033242;28;20124;-71
2022/01/15 01:25:35;;;;;;;23.40;13.73;;;;;;;;;;5032250;28;20140;-71
2022/01/15 01:28:08;;;;;;;27.95;14.10;;;;;;;;;;5033699;28;20125;-71
2022/01/15 01:30:46;;;;;;;25.38;13.73;;;;;;;;;;5033450;28;20048;-71
2022/01/15 01:38:36;;;;;;;25.58;13.80;;;;;;;;;;5033651;28;20085;-71
2022/01/15 01:41:07;;;;;;;29.65;15.13;;;;;;;;;;5031618;28;20053;-71
2022/01/15 01:44:02;;;;;;;28.15;14.40;;;;;;;;;;5031694;28;20052;-71
2022/01/15 01:49:47;;;;;;;31.35;16.00;;;;;;;;;;5033226;28;20690;-71
2022/01/15 01:52:40;;;;;;;26.95;14.90;;;;;;;;;;5032888;28;20381;-71
2022/01/15 01:58:23;;;;;;;26.77;15.13;;;;;;;;;;5033551;28;20080;-71
2022/01/15 02:00:51;;;;;;;33.85;15.52;;;;;;;;;;5031654;28;20048;-71
2022/01/15 02:03:36;;;;;;;24.10;13.88;;;;;;;;;;5032106;28;20041;-71
2022/01/15 02:06:04;;;;;;;25.55;14.38;;;;;;;;;;5032696;28;20042;-71
2022/01/15 02:08:37;;;;;;;28.17;14.93;;;;;;;;;;5032117;28;20060;-71
2022/01/15 02:11:06;;;;;;;27.25;15.20;;;;;;;;;;5030979;28;20100;-71
2022/01/15 02:13:38;;;;;;;25.92;15.00;;;;;;;;;;5032821;28;20107;-71
2022/01/15 02:16:30;;;;;;;30.60;15.68;;;;;;;;;;5035247;28;20037;-71
2022/01/15 02:19:02;;;;;;;28.10;13.77;;;;;;;;;;5035268;28;20052;-71
2022/01/15 02:24:19;;;;;;;27.90;14.63;;;;;;;;;;5037043;28;20041;-71
2022/01/15 02:26:55;;;;;;;29.45;15.63;;;;;;;;;;5036877;28;20069;-71
2022/01/15 02:29:22;;;;;;;29.75;15.80;;;;;;;;;;5036403;28;20116;-71
2022/01/15 02:32:14;;;;;;;27.58;16.38;;;;;;;;;;5036493;28;20033;-71
2022/01/15 02:34:44;;;;;;;30.92;16.50;;;;;;;;;;5034970;28;20041;-71
2022/01/15 02:37:17;;;;;;;28.23;14.98;;;;;;;;;;5034748;28;20045;-71
2022/01/15 02:39:58;;;;;;;28.42;16.05;;;;;;;;;;5036139;28;20042;-71
2022/01/15 02:42:51;;;;;;;32.45;16.55;;;;;;;;;;5034377;28;20466;-71
2022/01/15 02:45:53;;;;;;;31.42;16.30;;;;;;;;;;5035348;28;20083;-71
2022/01/15 02:48:21;;;;;;;31.63;16.77;;;;;;;;;;5034734;28;20048;-71
2022/01/15 02:51:02;;;;;;;30.83;16.20;;;;;;;;;;5034341;28;20033;-71
2022/01/15 02:53:54;;;;;;;31.60;16.63;;;;;;;;;;5034668;28;20050;-71
2022/01/15 02:56:23;;;;;;;30.23;15.10;;;;;;;;;;5036093;28;20408;-71
2022/01/15 02:58:52;;;;;;;31.70;15.27;;;;;;;;;;5035882;28;20045;-71
2022/01/15 03:01:19;;;;;;;30.98;15.57;;;;;;;;;;5036003;28;20037;-71
2022/01/15 03:03:53;;;;;;;28.33;14.98;;;;;;;;;;5034174;28;20045;-71
2022/01/15 03:06:21;;;;;;;29.58;14.88;;;;;;;;;;5035346;28;20072;-71
2022/01/15 03:09:13;;;;;;;27.02;14.95;;;;;;;;;;5036037;28;20041;-71
2022/01/15 03:11:45;;;;;;;28.33;15.48;;;;;;;;;;5035933;28;20038;-71
2022/01/15 03:14:18;;;;;;;29.15;16.30;;;;;;;;;;5036360;28;20052;-71
2022/01/15 03:16:51;;;;;;;28.05;15.88;;;;;;;;;;5035540;28;20122;-71
2022/01/15 03:19:40;;;;;;;31.80;17.15;;;;;;;;;;5034666;28;20041;-71
2022/01/15 03:22:33;;;;;;;31.20;17.27;;;;;;;;;;5036118;28;20103;-71
2022/01/15 03:25:05;;;;;;;31.77;16.50;;;;;;;;;;5036529;28;20468;-71
2022/01/15 03:27:35;;;;;;;30.52;16.27;;;;;;;;;;5034297;28;20052;-71
2022/01/15 03:30:06;;;;;;;33.25;15.90;;;;;;;;;;5035876;28;20053;-71
2022/01/15 03:32:42;;;;;;;32.67;16.23;;;;;;;;;;5034081;28;20145;-71
2022/01/15 03:35:14;;;;;;;30.60;16.85;;;;;;;;;;5035694;28;20041;-71
2022/01/15 03:37:46;;;;;;;31.00;16.42;;;;;;;;;;5035325;28;20116;-71
2022/01/15 03:40:18;;;;;;;30.63;16.52;;;;;;;;;;5034721;28;20087;-70
2022/01/15 03:42:47;;;;;;;30.42;16.95;;;;;;;;;;5033752;28;20048;-71
2022/01/15 03:45:17;;;;;;;31.58;16.42;;;;;;;;;;5033844;28;20060;-71
2022/01/15 03:47:49;;;;;;;27.92;15.55;;;;;;;;;;5035383;28;20473;-71
2022/01/15 03:50:19;;;;;;;31.67;16.90;;;;;;;;;;5033207;28;20057;-71
2022/01/15 03:52:49;;;;;;;32.10;16.75;;;;;;;;;;5033396;28;20056;-71
2022/01/15 03:55:22;;;;;;;31.48;16.23;;;;;;;;;;5034250;28;20056;-70
2022/01/15 03:57:50;;;;;;;29.55;16.23;;;;;;;;;;5034678;28;20116;-71
2022/01/15 04:00:20;;;;;;;33.53;16.50;;;;;;;;;;5033891;28;20554;-71
2022/01/15 04:02:52;;;;;;;31.10;16.70;;;;;;;;;;5033131;28;20049;-71
2022/01/15 04:05:21;;;;;;;31.80;15.30;;;;;;;;;;5034085;28;20408;-70
2022/01/15 04:07:53;;;;;;;33.22;16.35;;;;;;;;;;5033858;28;20045;-71
2022/01/15 04:10:38;;;;;;;28.42;15.27;;;;;;;;;;5034473;28;20514;-71
2022/01/15 04:13:06;;;;;;;30.70;16.13;;;;;;;;;;5033606;28;20041;-71
2022/01/15 04:15:39;;;;;;;30.90;15.85;;;;;;;;;;5033840;28;20037;-71
2022/01/15 04:18:10;;;;;;;42.38;22.25;;;;;;;;;;5033049;28;20100;-71
2022/01/15 04:20:39;;;;;;;53.92;25.95;;;;;;;;;;5032986;28;20046;-71
2022/01/15 04:23:08;;;;;;;55.60;28.20;;;;;;;;;;5035493;28;20483;-71
2022/01/15 04:25:37;;;;;;;48.13;25.63;;;;;;;;;;5034032;28;20041;-71
2022/01/15 04:28:11;;;;;;;81.20;37.22;;;;;;;;;;5033027;28;20059;-71
2022/01/15 04:30:47;;;;;;;66.32;34.28;;;;;;;;;;5032660;28;20045;-71
2022/01/15 04:33:22;;;;;;;69.32;37.00;;;;;;;;;;5032291;28;20042;-71
2022/01/15 04:39:07;;;;;;;51.90;25.58;;;;;;;;;;5032619;28;20083;-71
2022/01/15 04:41:35;;;;;;;42.33;22.83;;;;;;;;;;5031957;28;20081;-71
2022/01/15 04:44:05;;;;;;;44.20;20.92;;;;;;;;;;5034210;28;20435;-71
2022/01/15 04:46:59;;;;;;;39.83;20.65;;;;;;;;;;5033673;28;20050;-71
2022/01/15 04:49:30;;;;;;;42.72;20.05;;;;;;;;;;5033846;28;20038;-71
2022/01/15 04:52:16;;;;;;;43.25;21.60;;;;;;;;;;5034014;28;20046;-71
2022/01/15 04:54:46;;;;;;;43.42;20.98;;;;;;;;;;5034001;28;20037;-70
2022/01/15 04:57:13;;;;;;;44.30;20.65;;;;;;;;;;5033301;28;20492;-71
2022/01/15 05:03:17;;;;;;;45.92;22.27;;;;;;;;;;5031496;28;20061;-70
2022/01/15 05:06:10;;;;;;;43.70;20.63;;;;;;;;;;5033151;28;20046;-71
2022/01/15 05:08:39;;;;;;;49.10;22.08;;;;;;;;;;5031802;28;20065;-71
2022/01/15 05:11:44;;;;;;;58.15;25.55;;;;;;;;;;5033697;28;20560;-71
2022/01/15 05:14:16;;;;;;;37.97;18.83;;;;;;;;;;5034272;28;20069;-71
2022/01/15 05:16:51;;;;;;;34.85;18.83;;;;;;;;;;5034013;28;20037;-71
2022/01/15 05:19:22;;;;;;;47.17;22.10;;;;;;;;;;5031923;28;20045;-71
2022/01/15 05:21:56;;;;;;;44.63;21.67;;;;;;;;;;5032284;28;20041;-71
2022/01/15 05:24:26;;;;;;;38.88;18.85;;;;;;;;;;5033501;28;20073;-71
2022/01/15 05:26:55;;;;;;;35.75;19.08;;;;;;;;;;5032319;28;20444;-71
2022/01/15 05:29:26;;;;;;;39.80;19.17;;;;;;;;;;5031600;28;20460;-71
2022/01/15 05:31:54;;;;;;;33.85;17.58;;;;;;;;;;5033506;28;20034;-71
2022/01/15 05:34:21;;;;;;;34.47;17.45;;;;;;;;;;5033196;28;20048;-71
2022/01/15 05:37:13;;;;;;;34.28;17.25;;;;;;;;;;5031889;28;20393;-71
2022/01/15 05:39:47;;;;;;;32.75;16.30;;;;;;;;;;5033431;28;20543;-71
2022/01/15 05:42:22;;;;;;;31.50;15.57;;;;;;;;;;5033145;28;20076;-71
2022/01/15 05:44:49;;;;;;;;;;;;;;;;;;5033584;28;20042;-71
2022/01/15 05:47:22;;;;;;;32.28;15.23;;;;;;;;;;5033112;28;19921;-71
2022/01/15 05:49:55;;;;;;;34.97;15.63;;;;;;;;;;5033154;28;20052;-71
2022/01/15 05:52:33;;;;;;;38.67;16.77;;;;;;;;;;5036821;28;20461;-71
2022/01/15 05:55:01;;;;;;;47.10;23.65;;;;;;;;;;5037427;28;20472;-71
2022/01/15 05:57:53;;;;;;;40.03;19.33;;;;;;;;;;5037041;28;20513;-71
2022/01/15 06:00:21;;;;;;;32.65;16.55;;;;;;;;;;5035512;28;20458;-71
2022/01/15 06:03:14;;;;;;;29.73;16.58;;;;;;;;;;5036259;28;20393;-71
2022/01/15 06:05:44;;;;;;;34.17;19.63;;;;;;;;;;5036452;28;20072;-71
2022/01/15 06:08:13;;;;;;;33.72;19.30;;;;;;;;;;5037991;28;20052;-71
2022/01/15 06:10:43;;;;;;;54.38;28.33;;;;;;;;;;5036092;28;20046;-71
2022/01/15 06:13:11;;;;;;;48.40;27.08;;;;;;;;;;5037291;28;20048;-71
2022/01/15 06:15:41;;;;;;;39.20;20.48;;;;;;;;;;5035587;28;20033;-70
2022/01/15 06:18:33;;;;;;;38.78;19.80;;;;;;;;;;5037457;28;20037;-71
2022/01/15 06:21:05;;;;;;;38.72;20.20;;;;;;;;;;5035483;28;20049;-70
2022/01/15 06:23:37;;;;;;;47.35;21.40;;;;;;;;;;5035730;28;20045;-68
2022/01/15 06:26:05;;;;;;;47.28;23.48;;;;;;;;;;5036444;28;20068;-68
2022/01/15 06:28:33;;;;;;;52.58;24.80;;;;;;;;;;5036319;28;20038;-67
2022/01/15 06:31:09;;;;;;;82.45;37.80;;;;;;;;;;5035924;28;20045;-67
2022/01/15 06:33:39;;;;;;;77.78;36.60;;;;;;;;;;5036112;28;20167;-68
2022/01/15 06:36:10;;;;;;;59.28;29.08;;;;;;;;;;5034572;28;20056;-67
2022/01/15 06:39:02;;;;;;;43.35;21.35;;;;;;;;;;5036347;28;20545;-67
2022/01/15 06:41:55;;;;;;;36.97;17.35;;;;;;;;;;5036404;28;20080;-68
2022/01/15 06:44:29;;;;;;;31.88;16.90;;;;;;;;;;5035926;28;20042;-68
2022/01/15 06:46:56;;;;;;;33.58;17.05;;;;;;;;;;5035731;28;20046;-68
2022/01/15 06:49:51;;;;;;;35.78;17.00;;;;;;;;;;5035872;28;20045;-68
2022/01/15 06:52:43;;;;;;;26.58;13.88;;;;;;;;;;5047752;28;20037;-67
2022/01/15 06:58:29;;;;;;;30.50;15.07;;;;;;;;;;5054349;28;20056;-67
2022/01/15 07:00:56;;;;;;;27.42;14.23;;;;;;;;;;5053187;28;20057;-67
2022/01/15 07:03:24;;;;;;;26.10;14.18;;;;;;;;;;5053352;28;20048;-67
2022/01/15 07:05:58;;;;;;;30.00;13.98;;;;;;;;;;5055028;28;20041;-67
2022/01/15 07:08:29;;;;;;;29.48;15.07;;;;;;;;;;5055634;28;20499;-67
2022/01/15 07:11:22;;;;;;;31.40;17.00;;;;;;;;;;5054495;28;20496;-67
2022/01/15 07:17:28;;;;;;;;;;;;;;;;;;5016230;28;20408;-67
2022/01/15 07:20:23;;;;;;;28.90;15.65;;;;;;;;;;5015045;28;20384;-68
2022/01/15 07:22:52;;;;;;;28.77;16.35;;;;;;;;;;5046824;28;20054;-68
2022/01/15 07:28:31;;;;;;;28.58;15.60;;;;;;;;;;5031942;28;20049;-67
2022/01/15 07:31:01;;;;;;;29.35;15.13;;;;;;;;;;5034423;28;20034;-67
2022/01/15 07:33:46;;;;;;;27.33;15.07;;;;;;;;;;5031455;28;20091;-67
2022/01/15 07:36:19;;;;;;;30.13;17.33;;;;;;;;;;5033382;28;20091;-68
2022/01/15 07:38:49;;;;;;;27.48;16.23;;;;;;;;;;5034170;28;20045;-68
2022/01/15 07:41:20;;;;;;;31.38;16.83;;;;;;;;;;5020042;28;20053;-67
2022/01/15 07:43:47;;;;;;;31.25;16.40;;;;;;;;;;5034878;28;20045;-68
2022/01/15 07:50:23;;;;;;;25.80;13.75;;;;;;;;;;5033855;28;20491;-68
2022/01/15 08:03:56;;;;;;;25.73;13.35;;;;;;;;;;5015596;28;20053;-68
2022/01/15 08:06:29;;;;;;;25.02;14.35;;;;;;;;;;5038254;28;20045;-69
2022/01/15 08:09:10;;;;;;;29.08;14.85;;;;;;;;;;5050900;28;20126;-69
2022/01/15 08:11:37;;;;;;;23.55;13.25;;;;;;;;;;5014400;28;20038;-69
2022/01/15 08:14:05;;;;;;;25.40;14.60;;;;;;;;;;5013883;28;20040;-68
2022/01/15 08:20:09;;;;;;;23.75;13.68;;;;;;;;;;5014473;28;20337;-70
2022/01/15 08:23:02;;;;;;;23.98;13.25;;;;;;;;;;5012900;28;20045;-70
2022/01/15 08:36:32;;;;;;;25.63;14.07;;;;;;;;;;5018753;28;20045;-69
2022/01/15 08:39:40;;;;;;;25.58;14.50;;;;;;;;;;5032950;28;20095;-69
2022/01/15 08:45:45;;;;;;;22.23;13.13;;;;;;;;;;5014116;28;20504;-69
2022/01/15 08:51:30;;;;;;;22.17;12.68;;;;;;;;;;5019885;28;20042;-69
2022/01/15 08:57:57;;;;;;;22.17;12.85;;;;;;;;;;5033010;28;20567;-68
2022/01/15 09:04:09;;;;;;;24.20;14.63;;;;;;;;;;5031498;28;20124;-68
2022/01/15 09:07:01;;;;;;;24.58;14.23;;;;;;;;;;5033053;28;20441;-68
2022/01/15 09:09:54;;;;;;;24.13;14.57;;;;;;;;;;5033400;28;20456;-70
2022/01/15 09:12:28;;;;;;;28.58;14.75;;;;;;;;;;5033053;28;20052;-68
2022/01/15 09:15:11;;;;;;;;;;;;;;;;;;5032627;28;20037;-68
2022/01/15 09:17:43;;;;;;;25.73;14.25;;;;;;;;;;5022254;28;19922;-67
2022/01/15 09:20:30;;;;;;;24.27;13.95;;;;;;;;;;5013157;28;20124;-68
2022/01/15 09:22:58;;;;;;;23.35;13.30;;;;;;;;;;5012499;28;20451;-67
2022/01/15 09:31:56;;;;;;;22.98;13.70;;;;;;;;;;5027682;28;20037;-68
2022/01/15 09:34:48;;;;;;;21.08;11.63;;;;;;;;;;5026144;28;20133;-68
2022/01/15 09:37:49;;;;;;;18.92;9.18;;;;;;;;;;5060419;28;20037;-68
2022/01/15 09:40:42;;;;;;;18.00;9.70;;;;;;;;;;5032938;28;20050;-68
2022/01/15 09:46:50;;;;;;;11.50;5.80;;;;;;;;;;5032253;28;20406;-70
2022/01/15 09:53:20;;;;;;;9.45;5.00;;;;;;;;;;5012574;28;20068;-70
2022/01/15 09:55:48;;;;;;;13.63;5.60;;;;;;;;;;5011973;28;20136;-69
2022/01/15 10:01:32;;;;;;;9.73;4.78;;;;;;;;;;5032765;28;20112;-70
2022/01/15 10:07:35;;;;;;;11.63;4.95;;;;;;;;;;5031864;28;20033;-70
2022/01/15 10:20:55;;;;;;;23.88;12.07;;;;;;;;;;5013226;28;20058;-70
2022/01/15 10:27:17;;;;;;;11.15;6.53;;;;;;;;;;5013163;28;20487;-70
2022/01/15 10:33:20;;;;;;;10.05;5.70;;;;;;;;;;5013126;28;20422;-70
2022/01/15 10:36:19;;;;;;;12.07;5.95;;;;;;;;;;5012737;28;20050;-70
2022/01/15 10:38:46;;;;;;;12.30;5.30;;;;;;;;;;5015921;28;20073;-69
2022/01/15 10:41:45;;;;;;;14.70;7.18;;;;;;;;;;5016653;28;20041;-70
2022/01/15 10:44:34;;;;;;;14.80;7.03;;;;;;;;;;5016603;28;20070;-70
2022/01/15 10:47:21;;;;;;;9.90;4.90;;;;;;;;;;5016062;28;20066;-70
2022/01/15 10:50:13;;;;;;;10.43;5.43;;;;;;;;;;5016069;28;20057;-68
2022/01/15 10:53:06;;;;;;;10.98;5.82;;;;;;;;;;5025489;28;20052;-70
2022/01/15 10:55:40;;;;;;;11.13;6.45;;;;;;;;;;5031346;28;20046;-72
2022/01/15 10:58:11;;;;;;;8.45;4.35;;;;;;;;;;5047512;28;20121;-71
2022/01/15 11:01:04;;;;;;;9.10;3.67;;;;;;;;;;5015968;28;20046;-72
2022/01/15 11:03:57;;;;;;;8.60;4.05;;;;;;;;;;5030951;28;20431;-79
2022/01/15 11:06:38;;;;;;;8.75;4.07;;;;;;;;;;5027265;28;20034;-80
2022/01/15 11:09:34;;;;;;;7.63;3.53;;;;;;;;;;5035585;28;20107;-79
2022/01/15 11:12:02;;;;;;;5.03;3.20;;;;;;;;;;5035508;28;20168;-72
2022/01/15 11:21:41;;;;;;;6.35;2.60;;;;;;;;;;5035048;28;20024;-76
2022/01/15 11:24:33;;;;;;;4.25;2.80;;;;;;;;;;5034535;28;20120;-78
2022/01/15 11:27:05;;;;;;;5.13;3.10;;;;;;;;;;5035046;28;20045;-75
2022/01/15 11:29:43;;;;;;;6.40;2.78;;;;;;;;;;5033115;28;20619;-78
2022/01/15 11:32:15;;;;;;;6.97;3.05;;;;;;;;;;5031514;28;20050;-75
2022/01/15 11:35:05;;;;;;;4.40;2.50;;;;;;;;;;5027942;28;20400;-77
2022/01/15 11:37:46;;;;;;;6.18;2.50;;;;;;;;;;5015044;28;20048;-76
2022/01/15 11:40:35;;;;;;;5.35;2.50;;;;;;;;;;5013897;28;20128;-77
2022/01/15 11:43:22;;;;;;;6.40;2.60;;;;;;;;;;5015366;28;20050;-77
2022/01/15 11:45:49;;;;;;;6.40;2.63;;;;;;;;;;5013997;28;20412;-77
2022/01/15 11:48:21;;;;;;;6.75;2.60;;;;;;;;;;5013396;28;20481;-76
2022/01/15 11:51:08;;;;;;;8.63;4.03;;;;;;;;;;5033354;28;20048;-75
2022/01/15 11:53:57;;;;;;;9.13;4.03;;;;;;;;;;5033375;28;20096;-76
2022/01/15 11:56:44;;;;;;;10.00;4.63;;;;;;;;;;5033330;28;20135;-78
2022/01/15 11:59:27;;;;;;;8.43;4.57;;;;;;;;;;5034427;28;20492;-75
2022/01/15 12:01:56;;;;;;;8.10;4.72;;;;;;;;;;5034147;28;20137;-77
2022/01/15 12:04:25;;;;;;;8.07;4.35;;;;;;;;;;5034384;28;20049;-77
2022/01/15 12:07:04;;;;;;;5.32;2.72;;;;;;;;;;5032830;28;20540;-78
2022/01/15 12:09:39;;;;;;;4.57;2.40;;;;;;;;;;5034334;28;20471;-75
2022/01/15 12:12:34;;;;;;;8.00;3.00;;;;;;;;;;5034325;28;20357;-78
2022/01/15 12:15:28;;;;;;;4.93;2.40;;;;;;;;;;5033042;28;20091;-74
2022/01/15 12:18:21;;;;;;;4.40;2.60;;;;;;;;;;5032761;28;20038;-76
2022/01/15 12:21:13;;;;;;;6.10;2.70;;;;;;;;;;5029570;28;20041;-76
2022/01/15 12:23:46;;;;;;;4.35;2.28;;;;;;;;;;5013101;28;20060;-76
2022/01/15 12:26:20;;;;;;;8.68;1.83;;;;;;;;;;5014480;28;20056;-75
2022/01/15 12:28:49;;;;;;;4.50;2.25;;;;;;;;;;5014109;28;20049;-74
2022/01/15 12:31:17;;;;;;;4.90;2.30;;;;;;;;;;5013921;28;20037;-75
2022/01/15 12:33:49;;;;;;;5.95;2.40;;;;;;;;;;5013630;28;20045;-73
2022/01/15 12:36:19;;;;;;;6.57;2.35;;;;;;;;;;5031587;28;20076;-73
2022/01/15 12:38:51;;;;;;;5.30;2.97;;;;;;;;;;5033926;28;20038;-73
2022/01/15 12:41:20;;;;;;;4.18;2.33;;;;;;;;;;5033708;28;20519;-72
2022/01/15 12:43:50;;;;;;;11.98;3.60;;;;;;;;;;5033564;28;20080;-72
2022/01/15 12:46:22;;;;;;;8.18;4.00;;;;;;;;;;5033301;28;20534;-73
2022/01/15 12:49:08;;;;;;;7.65;3.72;;;;;;;;;;5034253;28;20115;-72
2022/01/15 12:52:01;;;;;;;9.55;3.72;;;;;;;;;;5032435;28;20046;-72
2022/01/15 12:54:32;;;;;;;9.23;3.70;;;;;;;;;;5033621;28;20408;-72
2022/01/15 12:57:24;;;;;;;6.55;3.20;;;;;;;;;;5031898;28;20140;-71
2022/01/15 13:00:02;;;;;;;5.53;2.53;;;;;;;;;;5028376;28;20109;-71
2022/01/15 13:02:30;;;;;;;6.53;2.42;;;;;;;;;;5032001;28;20084;-71
2022/01/15 13:04:58;;;;;;;3.80;2.15;;;;;;;;;;5033437;28;20055;-71
2022/01/15 13:07:27;;;;;;;3.63;2.50;;;;;;;;;;5033104;28;20120;-72
2022/01/15 13:10:29;;;;;;;3.83;2.40;;;;;;;;;;5033165;28;20045;-70
2022/01/15 13:13:21;;;;;;;6.72;3.47;;;;;;;;;;5014387;28;20042;-73
2022/01/15 13:15:59;;;;;;;7.10;3.58;;;;;;;;;;5013848;28;20045;-71
2022/01/15 13:18:36;;;;;;;8.95;3.90;;;;;;;;;;5013950;28;20104;-73
2022/01/15 13:21:07;;;;;;;6.53;3.80;;;;;;;;;;5013637;28;20088;-73
2022/01/15 13:23:39;;;;;;;7.57;4.30;;;;;;;;;;5013132;28;20493;-72
2022/01/15 13:26:31;;;;;;;6.38;3.70;;;;;;;;;;5012988;28;20100;-73
2022/01/15 13:29:05;;;;;;;8.32;4.30;;;;;;;;;;5013495;28;20405;-72
2022/01/15 13:31:40;;;;;;;9.05;4.05;;;;;;;;;;5025824;28;20112;-72
2022/01/15 13:34:35;;;;;;;9.52;3.85;;;;;;;;;;5013520;28;20061;-72
2022/01/15 13:37:28;;;;;;;12.00;4.05;;;;;;;;;;5014948;28;20073;-71
2022/01/15 13:40:02;;;;;;;9.35;4.47;;;;;;;;;;5013900;28;20046;-71
2022/01/15 13:42:35;;;;;;;8.02;4.88;;;;;;;;;;5017652;28;20041;-71
2022/01/15 13:45:07;;;;;;;7.38;4.10;;;;;;;;;;5031304;28;20470;-70
2022/01/15 13:47:36;;;;;;;7.65;3.90;;;;;;;;;;5033436;28;20113;-71
2022/01/15 13:53:05;;;;;;;8.65;4.60;;;;;;;;;;5033047;28;20038;-72
2022/01/15 13:55:35;;;;;;;8.18;3.92;;;;;;;;;;5032773;28;20042;-72
2022/01/15 13:58:11;;;;;;;6.30;3.75;;;;;;;;;;5031380;28;20495;-72
2022/01/15 14:00:40;;;;;;;6.93;3.85;;;;;;;;;;5036732;28;20052;-71
2022/01/15 14:03:11;;;;;;;9.20;4.60;;;;;;;;;;5031635;28;20045;-72
2022/01/15 14:05:40;;;;;;;14.55;7.78;;;;;;;;;;5026727;28;20100;-70
2022/01/15 14:08:09;;;;;;;7.88;4.40;;;;;;;;;;5031740;28;20037;-71
2022/01/15 14:10:38;;;;;;;14.50;7.43;;;;;;;;;;5032563;28;20048;-71
2022/01/15 14:13:09;;;;;;;8.32;4.03;;;;;;;;;;5027159;28;20456;-71
2022/01/15 14:15:46;;;;;;;23.60;13.07;;;;;;;;;;5032127;28;20485;-71
2022/01/15 14:18:20;;;;;;;20.77;10.43;;;;;;;;;;5016983;28;20045;-71
2022/01/15 14:23:28;;;;;;;10.30;5.57;;;;;;;;;;5048709;28;20510;-71
2022/01/15 14:26:28;;;;;;;19.52;10.15;;;;;;;;;;5048468;28;20073;-71
2022/01/15 14:29:06;;;;;;;41.10;23.75;;;;;;;;;;5016813;28;20128;-69
2022/01/15 14:31:37;;;;;;;12.50;5.90;;;;;;;;;;5055749;28;20452;-71
2022/01/15 14:34:06;;;;;;;59.47;31.25;;;;;;;;;;5036799;28;20108;-72
2022/01/15 14:36:39;;;;;;;19.77;10.10;;;;;;;;;;5019133;28;20499;-72
2022/01/15 14:39:21;;;;;;;9.50;4.78;;;;;;;;;;5036905;28;20061;-72
2022/01/15 14:41:49;;;;;;;7.88;5.05;;;;;;;;;;5041704;28;20071;-72
2022/01/15 14:44:19;;;;;;;9.10;5.00;;;;;;;;;;5024610;28;20046;-72
2022/01/15 14:46:48;;;;;;;9.95;5.05;;;;;;;;;;5024615;28;20399;-72
2022/01/15 14:52:45;;;;;;;33.33;17.98;;;;;;;;;;5032647;28;20024;-72
2022/01/15 14:58:18;;;;;;;16.67;7.75;;;;;;;;;;5014335;28;20527;-72
2022/01/15 15:00:49;;;;;;;10.38;5.60;;;;;;;;;;5016087;28;20062;-72
2022/01/15 15:03:44;;;;;;;13.63;6.57;;;;;;;;;;5016025;28;20401;-72
2022/01/15 15:06:17;;;;;;;10.57;5.40;;;;;;;;;;5015841;28;20076;-72
2022/01/15 15:08:52;;;;;;;10.23;4.90;;;;;;;;;;5031012;28;20042;-72
2022/01/15 15:11:20;;;;;;;10.75;5.35;;;;;;;;;;5047637;28;20046;-71
2022/01/15 15:13:47;;;;;;;9.73;5.50;;;;;;;;;;5015860;28;20061;-71
2022/01/15 15:16:15;;;;;;;10.15;5.47;;;;;;;;;;5015605;28;20048;-72
2022/01/15 15:18:52;;;;;;;11.52;5.50;;;;;;;;;;5014413;28;20041;-72
2022/01/15 15:21:21;;;;;;;14.15;5.78;;;;;;;;;;5047635;28;20042;-72
2022/01/15 15:23:51;;;;;;;9.93;5.63;;;;;;;;;;5014455;28;20497;-72
2022/01/15 15:26:24;;;;;;;10.70;6.65;;;;;;;;;;5065762;28;20132;-72
2022/01/15 15:28:52;;;;;;;12.52;6.95;;;;;;;;;;5015803;28;20129;-72
2022/01/15 15:31:20;;;;;;;14.90;6.90;;;;;;;;;;5014830;28;20433;-72
2022/01/15 15:37:05;;;;;;;14.30;7.78;;;;;;;;;;5015177;28;20042;-73
2022/01/15 15:39:33;;;;;;;16.83;8.13;;;;;;;;;;5014570;28;20095;-72
2022/01/15 15:42:01;;;;;;;15.55;8.95;;;;;;;;;;5046824;28;20046;-72
2022/01/15 15:44:34;;;;;;;18.48;9.02;;;;;;;;;;5015020;28;20100;-72
2022/01/15 15:47:08;;;;;;;17.65;9.50;;;;;;;;;;5015372;28;20117;-72
2022/01/15 15:49:37;;;;;;;15.80;8.85;;;;;;;;;;5015018;28;20112;-72
2022/01/15 15:52:07;;;;;;;19.13;9.63;;;;;;;;;;5014889;28;20481;-72
2022/01/15 15:54:38;;;;;;;22.95;9.10;;;;;;;;;;5015659;28;20126;-72
2022/01/15 15:57:10;;;;;;;20.52;11.02;;;;;;;;;;5014851;28;20097;-72
2022/01/15 15:59:41;;;;;;;22.02;14.00;;;;;;;;;;5046537;28;20038;-72
2022/01/15 16:02:09;;;;;;;23.23;12.13;;;;;;;;;;5013067;28;20069;-72
2022/01/15 16:04:41;;;;;;;45.15;25.60;;;;;;;;;;5015248;28;20049;-72
2022/01/15 16:07:11;;;;;;;32.15;17.40;;;;;;;;;;5014945;28;20127;-72
2022/01/15 16:09:44;;;;;;;12.60;6.93;;;;;;;;;;5014740;28;20041;-72
2022/01/15 16:12:14;;;;;;;11.60;6.07;;;;;;;;;;5014255;28;20040;-72
2022/01/15 16:14:41;;;;;;;11.30;6.20;;;;;;;;;;5013921;28;20069;-72
2022/01/15 16:17:10;;;;;;;13.18;6.53;;;;;;;;;;5013057;28;20045;-72
2022/01/15 16:19:42;;;;;;;32.55;16.88;;;;;;;;;;5014578;28;20050;-72
2022/01/15 16:22:13;;;;;;;23.33;12.70;;;;;;;;;;5014920;28;20048;-77
2022/01/15 16:24:50;;;;;;;21.77;10.15;;;;;;;;;;5013057;28;20050;-77
2022/01/15 16:27:19;;;;;;;22.45;11.63;;;;;;;;;;5014337;28;20392;-78
2022/01/15 16:29:52;;;;;;;24.88;12.80;;;;;;;;;;5014280;28;20129;-79
2022/01/15 16:32:20;;;;;;;17.58;9.45;;;;;;;;;;5018942;28;20099;-78
2022/01/15 16:34:50;;;;;;;18.13;8.70;;;;;;;;;;5013860;28;20476;-79
2022/01/15 16:37:17;;;;;;;15.05;7.20;;;;;;;;;;5013966;28;20044;-80
2022/01/15 16:39:45;;;;;;;10.93;5.18;;;;;;;;;;5015497;28;20049;-79
2022/01/15 16:42:13;;;;;;;31.85;18.40;;;;;;;;;;5013526;28;20038;-78
2022/01/15 16:44:40;;;;;;;26.65;13.95;;;;;;;;;;5020376;28;20042;-77
2022/01/15 16:47:10;;;;;;;13.75;8.25;;;;;;;;;;5013159;28;20481;-79
2022/01/15 16:49:38;;;;;;;8.18;4.32;;;;;;;;;;5014417;28;20038;-77
2022/01/15 16:52:18;;;;;;;47.53;25.73;;;;;;;;;;5045638;28;20041;-77
2022/01/15 16:55:11;;;;;;;18.35;10.15;;;;;;;;;;5030323;28;20050;-73
2022/01/15 16:57:39;;;;;;;7.55;3.50;;;;;;;;;;5031369;28;20071;-75
2022/01/15 17:00:17;;;;;;;8.77;3.55;;;;;;;;;;5032345;28;20408;-75
2022/01/15 17:02:46;;;;;;;7.90;4.88;;;;;;;;;;5034842;28;20061;-77
2022/01/15 17:05:14;;;;;;;8.18;4.40;;;;;;;;;;5030027;28;20506;-78
2022/01/15 17:07:42;;;;;;;7.78;4.30;;;;;;;;;;5032270;28;20508;-77
2022/01/15 17:10:10;;;;;;;10.40;4.68;;;;;;;;;;5032069;28;20045;-77
2022/01/15 17:12:38;;;;;;;9.93;4.57;;;;;;;;;;5030395;28;20524;-79
2022/01/15 17:15:34;;;;;;;7.57;3.67;;;;;;;;;;5035942;28;20048;-78
2022/01/15 17:21:42;;;;;;;7.45;4.45;;;;;;;;;;5036513;28;20033;-77
2022/01/15 17:27:29;;;;;;;12.27;4.70;;;;;;;;;;5019394;28;20552;-77
2022/01/15 17:29:57;;;;;;;8.63;4.13;;;;;;;;;;5041741;28;20029;-74
2022/01/15 17:32:24;;;;;;;8.98;4.72;;;;;;;;;;5030196;28;20041;-75
2022/01/15 17:34:52;;;;;;;12.15;5.43;;;;;;;;;;5035625;28;20424;-78
2022/01/15 17:37:20;;;;;;;16.58;7.03;;;;;;;;;;5035164;28;20048;-78
2022/01/15 17:39:47;;;;;;;17.15;6.78;;;;;;;;;;5029147;28;20191;-78
2022/01/15 17:42:15;;;;;;;9.48;5.53;;;;;;;;;;5030233;28;20061;-79
2022/01/15 17:44:44;;;;;;;13.05;5.28;;;;;;;;;;5032809;28;20577;-80